Time;durP1;ratioP1;P1;durP2;ratioP2;P2;SDS_P1;SDS_P2;PMS_P1;PMS_P2;Temp;Humidity;BMP_temperature;BMP_pressure;BME280_temperature;BME280_humidity;BME280_pressure;Samples;Min_cycle;Max_cycle;Signal;HPM_P1;HPM_P2
2024/03/03 00:01:59;;;;;;;3.58;3.00;;;17.40;65.70;;;;;;6035948;23;20156;-87
2024/03/03 00:04:31;;;;;;;4.07;3.17;;;17.30;65.80;;;;;;6022503;23;20643;-87
2024/03/03 00:10:13;;;;;;;3.15;2.70;;;17.40;65.50;;;;;;5974072;23;20237;-87
2024/03/03 00:13:20;;;;;;;3.72;3.00;;;17.40;65.80;;;;;;6010767;23;20154;-86
2024/03/03 00:15:52;;;;;;;3.50;2.80;;;17.30;66.00;;;;;;5961219;24;20151;-87
2024/03/03 00:18:27;;;;;;;3.72;3.00;;;17.30;65.60;;;;;;5905436;24;20163;-87
2024/03/03 00:20:53;;;;;;;3.92;3.30;;;17.30;65.60;;;;;;5900806;24;20157;-87
2024/03/03 00:23:53;;;;;;;3.97;3.13;;;17.30;65.90;;;;;;5900111;24;20189;-87
2024/03/03 00:26:19;;;;;;;3.80;3.22;;;17.30;65.90;;;;;;5850246;24;20162;-87
2024/03/03 00:28:50;;;;;;;3.50;3.00;;;17.30;65.70;;;;;;5873236;24;20241;-87
2024/03/03 00:31:49;;;;;;;3.88;3.33;;;17.20;65.80;;;;;;5873489;24;20643;-87
2024/03/03 00:34:26;;;;;;;3.50;2.90;;;17.30;65.60;;;;;;5767038;24;20169;-87
2024/03/03 00:36:56;;;;;;;3.88;3.20;;;17.30;65.60;;;;;;5766141;24;20559;-87
2024/03/03 00:39:29;;;;;;;3.30;3.00;;;17.30;65.70;;;;;;5766597;24;20165;-87
2024/03/03 00:41:55;;;;;;;3.42;2.80;;;17.30;65.80;;;;;;5745284;24;20192;-88
2024/03/03 00:44:46;;;;;;;3.58;2.80;;;17.30;65.60;;;;;;5766956;24;20323;-86
2024/03/03 00:47:23;;;;;;;3.72;3.10;;;17.30;65.70;;;;;;5749159;24;20512;-88
2024/03/03 00:49:56;;;;;;;3.75;3.08;;;17.30;65.90;;;;;;5738375;24;20222;-86
2024/03/03 00:52:28;;;;;;;3.90;2.92;;;17.30;66.00;;;;;;5763155;24;20287;-87
2024/03/03 00:54:58;;;;;;;3.72;2.80;;;17.30;65.80;;;;;;5849848;24;20202;-87
2024/03/03 00:57:48;;;;;;;4.18;3.13;;;17.30;65.80;;;;;;5871725;24;20158;-88
2024/03/03 01:00:14;;;;;;;3.30;3.00;;;17.30;65.90;;;;;;5793434;24;20159;-88
2024/03/03 01:02:46;;;;;;;3.63;3.00;;;17.30;66.00;;;;;;5828741;24;20612;-87
2024/03/03 01:05:18;;;;;;;3.70;3.17;;;17.30;65.80;;;;;;5854795;24;20181;-87
2024/03/03 01:08:05;;;;;;;3.60;2.88;;;17.30;65.70;;;;;;5877624;24;20149;-87
2024/03/03 01:10:45;;;;;;;3.90;2.95;;;17.30;65.60;;;;;;5881905;24;20155;-87
2024/03/03 01:13:12;;;;;;;4.13;3.03;;;17.30;65.60;;;;;;5904957;24;20168;-87
2024/03/03 01:15:52;;;;;;;3.67;2.83;;;17.40;65.80;;;;;;5908478;24;20213;-87
2024/03/03 01:18:20;;;;;;;3.85;3.20;;;17.30;65.60;;;;;;5909104;24;20156;-87
2024/03/03 01:21:08;;;;;;;4.45;3.08;;;17.30;65.90;;;;;;5937500;24;20162;-87
2024/03/03 01:23:48;;;;;;;4.20;3.00;;;17.30;65.90;;;;;;5899603;24;20753;-86
2024/03/03 01:26:22;;;;;;;4.20;3.13;;;17.30;65.60;;;;;;5934662;24;20152;-87
2024/03/03 01:28:54;;;;;;;3.70;3.00;;;17.30;65.70;;;;;;5931430;24;20155;-87
2024/03/03 01:32:08;;;;;;;;;;;;;;;;;;;;;
2024/03/03 01:34:41;;;;;;;3.60;2.95;;;17.30;65.80;;;;;;5979857;23;20213;-87
2024/03/03 01:37:19;;;;;;;3.63;2.97;;;17.20;65.70;;;;;;5967287;23;20546;-87
2024/03/03 01:40:00;;;;;;;3.78;3.10;;;17.30;65.80;;;;;;5925102;24;20535;-87
2024/03/03 01:42:25;;;;;;;4.05;2.90;;;17.30;65.90;;;;;;5880074;24;20168;-86
2024/03/03 01:45:04;;;;;;;3.80;3.17;;;17.30;65.50;;;;;;5902372;24;20192;-87
2024/03/03 01:47:40;;;;;;;3.58;3.00;;;17.20;65.60;;;;;;5948565;24;20192;-87
2024/03/03 01:50:10;;;;;;;4.30;3.15;;;17.30;65.70;;;;;;5880402;24;20148;-86
2024/03/03 01:52:40;;;;;;;3.65;3.17;;;17.30;65.60;;;;;;5902497;24;20197;-87
2024/03/03 01:55:30;;;;;;;4.13;3.15;;;17.30;65.80;;;;;;5970047;24;20163;-86
2024/03/03 02:25:22;;;;;;;3.70;3.10;;;17.20;65.90;;;;;;6066893;23;20598;-89
2024/03/03 02:28:05;;;;;;;4.18;3.20;;;17.20;65.80;;;;;;6051783;23;20156;-87
2024/03/03 02:30:36;;;;;;;3.25;2.70;;;17.20;66.00;;;;;;6057378;23;20187;-88
2024/03/03 02:33:15;;;;;;;3.75;3.00;;;17.20;65.90;;;;;;6077459;23;20155;-87
2024/03/03 02:36:06;;;;;;;3.83;3.00;;;17.20;65.90;;;;;;6054433;23;20250;-87
2024/03/03 02:39:04;;;;;;;3.78;3.38;;;17.20;65.60;;;;;;6009605;23;20166;-87
2024/03/03 02:41:46;;;;;;;3.90;3.10;;;17.30;66.00;;;;;;6010445;23;20181;-87
2024/03/03 02:44:37;;;;;;;3.90;3.05;;;17.20;65.90;;;;;;5964422;23;20218;-85
2024/03/03 02:47:35;;;;;;;3.72;3.10;;;17.20;65.80;;;;;;5929981;24;20543;-87
2024/03/03 02:50:45;;;;;;;3.38;2.95;;;17.20;65.80;;;;;;5896730;24;20155;-87
2024/03/03 02:53:56;;;;;;;4.25;3.40;;;17.20;65.80;;;;;;5889532;24;20550;-88
2024/03/03 02:56:32;;;;;;;3.70;3.13;;;17.20;65.60;;;;;;5897405;24;20483;-87
2024/03/03 02:59:37;;;;;;;4.38;3.22;;;17.10;65.70;;;;;;5821504;24;20860;-88
2024/03/03 03:02:05;;;;;;;3.25;2.95;;;17.20;65.90;;;;;;5844133;24;20162;-87
2024/03/03 03:05:04;;;;;;;3.67;3.00;;;17.20;66.00;;;;;;5844157;24;20281;-87
2024/03/03 03:08:05;;;;;;;3.47;2.97;;;17.20;65.90;;;;;;5824762;24;20689;-87
2024/03/03 03:10:31;;;;;;;4.68;3.17;;;17.20;65.70;;;;;;5750396;24;20201;-87
2024/03/03 03:13:07;;;;;;;3.97;3.35;;;17.20;65.60;;;;;;5789901;24;20171;-87
2024/03/03 03:19:21;;;;;;;5.40;2.97;;;17.20;65.70;;;;;;5818464;24;20186;-87
2024/03/03 03:21:49;;;;;;;3.88;3.20;;;17.20;65.80;;;;;;5840057;24;20155;-87
2024/03/03 03:24:53;;;;;;;3.60;3.03;;;17.20;65.60;;;;;;5839436;24;20195;-88
2024/03/03 03:27:28;;;;;;;4.60;3.20;;;17.20;65.80;;;;;;5817875;24;20163;-88
2024/03/03 03:30:06;;;;;;;3.85;3.13;;;17.20;65.50;;;;;;5745338;24;20225;-87
2024/03/03 03:33:06;;;;;;;3.30;3.00;;;17.20;65.50;;;;;;5848199;24;20248;-87
2024/03/03 03:35:51;;;;;;;4.13;3.25;;;17.20;65.60;;;;;;5846584;24;20158;-87
2024/03/03 03:38:45;;;;;;;4.05;3.08;;;17.20;65.80;;;;;;5797407;24;20190;-87
2024/03/03 03:41:32;;;;;;;4.07;3.25;;;17.20;65.80;;;;;;5776464;24;20160;-87
2024/03/03 03:46:54;;;;;;;4.40;3.33;;;17.10;66.00;;;;;;5819468;24;20254;-88
2024/03/03 03:49:32;;;;;;;3.72;3.08;;;17.10;65.90;;;;;;5819538;24;20191;-88
2024/03/03 03:52:20;;;;;;;4.05;3.13;;;17.10;66.00;;;;;;5819476;24;20159;-87
2024/03/03 03:55:32;;;;;;;3.63;2.90;;;17.10;66.00;;;;;;5825618;24;20260;-87
2024/03/03 03:58:14;;;;;;;4.05;3.35;;;17.20;65.90;;;;;;5863222;24;20166;-87
2024/03/03 04:00:58;;;;;;;3.42;2.90;;;17.20;65.90;;;;;;5899008;24;20165;-86
2024/03/03 04:03:55;;;;;;;3.95;3.03;;;17.10;65.80;;;;;;5905973;24;20194;-87
2024/03/03 04:06:57;;;;;;;5.32;3.30;;;17.20;65.90;;;;;;5954072;24;20160;-87
2024/03/03 04:09:29;;;;;;;3.75;3.25;;;17.20;66.00;;;;;;5953328;24;20498;-87
2024/03/03 04:12:29;;;;;;;4.70;3.40;;;17.10;66.10;;;;;;5935988;24;20151;-87
2024/03/03 04:15:19;;;;;;;3.65;3.13;;;17.10;66.90;;;;;;5862542;24;20155;-87
2024/03/03 04:17:45;;;;;;;4.47;3.10;;;17.10;66.10;;;;;;5930742;24;20160;-87
2024/03/03 04:20:16;;;;;;;3.40;3.05;;;17.10;66.20;;;;;;5931949;24;20255;-87
2024/03/03 04:23:03;;;;;;;3.30;2.95;;;17.10;66.00;;;;;;5877179;24;20213;-87
2024/03/03 04:25:38;;;;;;;3.90;3.22;;;17.10;66.10;;;;;;5833745;24;20230;-87
2024/03/03 04:28:10;;;;;;;3.97;3.30;;;17.10;66.10;;;;;;5897992;24;20153;-87
2024/03/03 04:31:04;;;;;;;3.22;2.92;;;17.10;66.10;;;;;;5771851;24;20230;-86
2024/03/03 04:33:34;;;;;;;3.85;3.22;;;17.10;66.00;;;;;;5800795;24;20195;-87
2024/03/03 04:37:14;;;;;;;;;;;;;;;;;;;;;
2024/03/03 04:40:12;;;;;;;3.65;3.13;;;17.10;66.10;;;;;;5819341;24;20166;-86
2024/03/03 04:42:46;;;;;;;4.45;3.45;;;17.10;66.10;;;;;;5852021;24;20172;-87
2024/03/03 04:45:16;;;;;;;3.92;3.00;;;17.10;66.10;;;;;;5823629;24;20170;-87
2024/03/03 04:47:42;;;;;;;3.90;3.30;;;17.10;66.10;;;;;;5846266;24;20182;-87
2024/03/03 04:50:55;;;;;;;4.40;3.42;;;17.10;66.00;;;;;;5821989;24;20173;-88
2024/03/03 04:53:56;;;;;;;4.25;2.97;;;17.00;66.20;;;;;;5856217;24;20789;-87
2024/03/03 04:56:33;;;;;;;3.78;3.30;;;17.10;65.90;;;;;;5850486;24;20242;-87
2024/03/03 04:59:16;;;;;;;4.45;3.47;;;17.10;66.10;;;;;;5827305;24;20174;-87
2024/03/03 15:03:54;;;;;;;5.35;3.25;;;18.20;64.70;;;;;;6121528;23;20206;-85
2024/03/03 15:06:28;;;;;;;9.80;3.70;;;18.20;64.80;;;;;;6064260;23;20150;-83
2024/03/03 15:08:55;;;;;;;6.30;3.33;;;18.10;64.60;;;;;;6089696;23;20546;-84
2024/03/03 15:11:46;;;;;;;5.25;3.70;;;18.20;65.00;;;;;;6112331;23;20190;-85
2024/03/03 15:14:23;;;;;;;6.55;3.40;;;18.20;64.50;;;;;;6022383;23;20156;-84
2024/03/03 15:17:38;;;;;;;4.70;3.28;;;18.10;63.90;;;;;;5960547;24;20184;-83
2024/03/03 15:20:14;;;;;;;4.18;3.33;;;18.20;64.40;;;;;;5891468;24;20680;-85
2024/03/03 15:23:09;;;;;;;8.90;3.65;;;18.20;64.40;;;;;;5940392;24;20467;-85
2024/03/03 15:25:53;;;;;;;4.97;3.13;;;18.20;64.20;;;;;;5932150;24;20172;-85
2024/03/03 15:28:48;;;;;;;6.35;3.28;;;18.20;64.30;;;;;;5913302;24;20152;-85
2024/03/03 15:31:21;;;;;;;7.88;3.67;;;18.20;64.80;;;;;;5865396;24;20162;-84
2024/03/03 15:34:26;;;;;;;4.20;3.03;;;18.20;64.50;;;;;;5829517;24;20196;-85
2024/03/03 15:37:01;;;;;;;5.38;3.40;;;18.20;64.60;;;;;;5789892;24;20164;-84
2024/03/03 15:39:38;;;;;;;4.47;3.13;;;18.20;64.50;;;;;;5768744;24;20164;-84
2024/03/03 15:42:05;;;;;;;5.28;3.30;;;18.30;64.70;;;;;;5766916;24;20194;-83
2024/03/03 15:44:51;;;;;;;4.20;3.38;;;18.20;64.50;;;;;;5771817;24;20732;-84
2024/03/03 15:47:24;;;;;;;6.60;3.47;;;18.30;64.00;;;;;;5820346;24;20163;-83
2024/03/03 15:49:52;;;;;;;5.82;3.15;;;18.30;64.60;;;;;;5862487;24;20158;-85
2024/03/03 15:52:37;;;;;;;5.40;3.78;;;18.30;64.50;;;;;;5856197;24;20221;-84
2024/03/03 15:55:22;;;;;;;5.13;2.90;;;18.30;62.70;;;;;;5858230;24;20154;-84
2024/03/03 15:57:53;;;;;;;6.88;3.35;;;18.30;65.00;;;;;;5879717;24;20154;-85
2024/03/03 16:00:20;;;;;;;5.32;3.38;;;18.30;64.60;;;;;;5880950;24;20159;-84
2024/03/03 16:02:49;;;;;;;5.57;3.10;;;18.30;64.90;;;;;;5899294;24;20200;-84
2024/03/03 16:05:21;;;;;;;4.18;3.28;;;18.30;65.50;;;;;;5915281;24;20193;-81
2024/03/03 16:07:50;;;;;;;7.22;3.55;;;18.30;65.70;;;;;;5939651;24;20219;-85
2024/03/03 16:10:18;;;;;;;4.63;3.42;;;18.30;64.80;;;;;;5988534;23;20186;-84
2024/03/03 16:12:46;;;;;;;6.47;3.08;;;18.30;63.10;;;;;;6112054;23;20200;-83
2024/03/03 16:15:12;;;;;;;6.53;3.50;;;18.30;64.70;;;;;;6038702;23;20171;-83
2024/03/03 16:17:39;;;;;;;5.15;3.20;;;18.30;63.80;;;;;;6063154;23;20148;-84
2024/03/03 16:20:08;;;;;;;6.32;3.47;;;18.30;64.20;;;;;;6087205;23;20239;-84
2024/03/03 16:22:36;;;;;;;4.43;2.75;;;18.30;63.00;;;;;;6066266;23;20149;-84
2024/03/03 16:25:10;;;;;;;4.85;3.30;;;18.30;65.20;;;;;;6089080;23;20611;-84
2024/03/03 16:27:37;;;;;;;4.47;3.47;;;18.30;65.00;;;;;;6138196;23;20144;-85
2024/03/03 16:30:04;;;;;;;6.40;3.15;;;18.30;64.20;;;;;;6113731;23;20583;-84
2024/03/03 16:32:30;;;;;;;4.15;2.90;;;18.30;64.80;;;;;;6067258;23;20152;-85
2024/03/03 16:34:59;;;;;;;6.60;3.35;;;18.30;65.00;;;;;;6115640;23;20153;-84
2024/03/03 16:37:28;;;;;;;9.88;3.17;;;18.30;64.50;;;;;;6116997;23;20148;-82
2024/03/03 16:40:04;;;;;;;4.97;2.90;;;18.40;65.00;;;;;;6092344;23;20156;-84
2024/03/03 16:42:54;;;;;;;6.05;3.55;;;18.30;65.00;;;;;;6043671;23;20217;-84
2024/03/03 16:45:37;;;;;;;4.78;3.17;;;18.30;63.70;;;;;;6073506;23;20188;-84
2024/03/03 16:48:07;;;;;;;5.22;3.08;;;18.40;64.80;;;;;;6065666;23;20152;-84
2024/03/03 16:50:40;;;;;;;4.63;2.95;;;18.40;64.20;;;;;;6056511;23;20149;-85
2024/03/03 16:53:40;;;;;;;8.43;3.30;;;18.40;64.90;;;;;;6083253;23;20133;-85
2024/03/03 16:56:10;;;;;;;5.90;2.90;;;18.40;64.10;;;;;;6032489;23;20154;-84
2024/03/03 16:59:03;;;;;;;5.80;3.85;;;18.40;64.10;;;;;;6002686;23;20161;-84
2024/03/03 17:01:46;;;;;;;5.55;3.10;;;18.50;64.10;;;;;;5977025;24;20159;-85
2024/03/03 17:04:25;;;;;;;7.45;2.92;;;18.40;64.40;;;;;;5963828;23;20202;-85
2024/03/03 17:07:30;;;;;;;4.07;2.85;;;18.50;63.10;;;;;;5949727;23;20158;-85
2024/03/03 17:10:00;;;;;;;5.15;3.17;;;18.40;65.10;;;;;;6000054;23;20243;-84
2024/03/03 17:12:36;;;;;;;6.00;3.17;;;18.40;64.40;;;;;;5972260;23;20212;-84
2024/03/03 17:18:33;;;;;;;4.30;2.97;;;18.40;64.90;;;;;;5991266;23;20211;-83
2024/03/03 17:24:22;;;;;;;6.10;3.50;;;18.30;64.30;;;;;;6015836;23;20228;-85
2024/03/03 17:30:47;;;;;;;7.03;2.95;;;18.40;64.60;;;;;;6015280;23;20222;-85
2024/03/03 17:38:12;;;;;;;9.00;3.35;;;18.40;63.80;;;;;;5934146;24;20216;-83
2024/03/03 17:47:04;;;;;;;3.47;3.08;;;18.50;64.40;;;;;;5982486;23;20178;-86
2024/03/03 17:50:47;;;;;;;;;;;;;;;;;;;;;
2024/03/03 17:54:28;;;;;;;;;;;;;;;;;;;;;
2024/03/03 17:57:32;;;;;;;4.68;2.88;;;18.50;64.70;;;;;;5886395;24;20158;-84
2024/03/03 18:03:24;;;;;;;6.63;3.03;;;18.50;65.10;;;;;;5878040;24;20749;-85
2024/03/03 18:06:19;;;;;;;6.43;2.92;;;18.50;64.40;;;;;;5904569;24;20172;-84
2024/03/03 18:09:12;;;;;;;6.00;3.20;;;18.40;65.00;;;;;;5881581;24;20157;-85
2024/03/03 18:11:41;;;;;;;4.07;2.78;;;18.40;64.30;;;;;;5850417;24;20170;-86
2024/03/03 18:14:12;;;;;;;3.83;3.10;;;18.50;65.20;;;;;;5850280;24;20163;-85
2024/03/03 18:16:38;;;;;;;5.68;2.72;;;18.50;63.90;;;;;;5847769;24;20226;-85
2024/03/03 18:19:12;;;;;;;5.72;3.17;;;18.50;64.60;;;;;;5846153;24;20167;-85
2024/03/03 18:21:38;;;;;;;3.42;2.80;;;18.50;64.00;;;;;;5825565;24;20580;-85
2024/03/03 18:24:04;;;;;;;6.43;3.20;;;18.50;64.70;;;;;;5846180;24;20178;-84
2024/03/03 18:26:30;;;;;;;6.40;2.97;;;18.50;64.30;;;;;;5859661;24;20165;-84
2024/03/03 18:28:58;;;;;;;5.15;3.75;;;18.50;63.90;;;;;;5915451;24;20199;-83
2024/03/03 18:31:26;;;;;;;4.55;3.10;;;18.50;62.60;;;;;;5906748;24;20333;-84
2024/03/03 18:34:03;;;;;;;4.75;3.08;;;18.50;64.10;;;;;;5941151;24;20283;-83
2024/03/03 18:36:38;;;;;;;4.97;2.92;;;18.60;64.40;;;;;;5931269;24;20166;-83
2024/03/03 18:39:08;;;;;;;7.32;3.65;;;18.60;63.90;;;;;;5915390;24;20159;-83
2024/03/03 18:41:38;;;;;;;6.47;3.00;;;18.60;62.70;;;;;;5943323;23;20627;-84
2024/03/03 18:44:07;;;;;;;4.30;3.03;;;18.50;64.00;;;;;;5977234;23;20619;-84
2024/03/03 18:46:40;;;;;;;5.35;3.10;;;18.50;63.70;;;;;;6015508;23;20165;-84
2024/03/03 18:49:08;;;;;;;5.00;2.85;;;18.60;64.20;;;;;;6005816;23;20156;-84
2024/03/03 18:51:34;;;;;;;5.53;3.58;;;18.50;64.00;;;;;;6054306;23;20149;-84
2024/03/03 18:54:01;;;;;;;5.07;2.80;;;18.50;63.50;;;;;;6078328;23;20148;-84
2024/03/03 18:56:31;;;;;;;4.28;2.75;;;18.50;64.30;;;;;;6029777;23;20216;-83
2024/03/03 18:59:03;;;;;;;4.80;2.97;;;18.60;63.50;;;;;;6018895;23;20234;-83
2024/03/03 19:01:32;;;;;;;5.18;3.38;;;18.50;63.80;;;;;;5969777;23;20182;-83
2024/03/03 19:04:00;;;;;;;4.80;2.97;;;18.50;63.20;;;;;;5968924;23;20205;-83
2024/03/03 19:06:26;;;;;;;4.45;2.67;;;18.50;63.60;;;;;;6040241;23;20150;-83
2024/03/03 19:08:53;;;;;;;4.25;2.97;;;18.50;63.80;;;;;;5994398;23;20150;-84
2024/03/03 19:11:26;;;;;;;4.25;2.90;;;18.50;63.50;;;;;;5972327;23;20154;-84
2024/03/03 19:13:57;;;;;;;3.47;2.75;;;18.50;63.40;;;;;;5970427;23;20161;-83
2024/03/03 19:16:28;;;;;;;4.03;3.28;;;18.50;64.30;;;;;;5975371;23;20193;-84
2024/03/03 19:18:54;;;;;;;3.95;2.78;;;18.50;63.20;;;;;;6029923;23;20264;-83
2024/03/03 19:21:20;;;;;;;6.03;3.65;;;18.50;63.60;;;;;;6049625;23;20181;-85
2024/03/03 19:23:45;;;;;;;4.25;2.80;;;18.50;62.70;;;;;;6073429;23;20172;-85
2024/03/03 19:26:18;;;;;;;4.40;2.85;;;18.40;63.60;;;;;;6048722;23;20153;-85
2024/03/03 19:28:47;;;;;;;2.92;2.58;;;18.40;63.10;;;;;;6073581;23;20197;-85
2024/03/03 19:31:17;;;;;;;3.30;2.80;;;18.50;63.90;;;;;;6049672;23;20181;-85
2024/03/03 19:33:49;;;;;;;4.25;2.72;;;18.40;63.60;;;;;;6074020;23;20137;-85
2024/03/03 19:36:22;;;;;;;3.90;2.65;;;18.50;63.40;;;;;;6004004;23;20284;-85
2024/03/03 19:38:57;;;;;;;3.47;2.65;;;18.50;63.60;;;;;;6025544;23;20261;-85
2024/03/03 19:41:25;;;;;;;6.13;3.30;;;18.50;63.70;;;;;;6028427;23;20699;-85
2024/03/03 19:43:53;;;;;;;3.55;2.60;;;18.50;63.80;;;;;;6073651;23;20228;-85
2024/03/03 19:46:22;;;;;;;3.20;2.40;;;18.40;64.50;;;;;;6026084;23;20152;-85
2024/03/03 19:48:49;;;;;;;4.45;3.03;;;18.40;64.30;;;;;;6072571;23;20516;-84
2024/03/03 19:51:19;;;;;;;4.22;2.60;;;18.40;64.20;;;;;;6049356;23;20176;-85
2024/03/03 19:53:55;;;;;;;4.78;2.85;;;18.30;65.20;;;;;;6049122;23;20153;-85
2024/03/03 19:56:25;;;;;;;3.20;2.90;;;18.40;64.60;;;;;;6068037;23;20710;-84
2024/03/03 19:58:58;;;;;;;2.90;2.60;;;18.40;63.30;;;;;;6002107;23;20243;-85
2024/03/03 20:01:29;;;;;;;3.83;2.88;;;18.30;63.70;;;;;;6048948;23;20160;-85
2024/03/03 20:03:54;;;;;;;3.78;2.80;;;18.40;64.20;;;;;;5977717;23;20679;-85
2024/03/03 20:06:27;;;;;;;3.30;2.67;;;18.40;63.70;;;;;;6072778;23;20149;-85
2024/03/03 20:09:00;;;;;;;3.03;2.50;;;18.40;64.20;;;;;;6025072;23;20669;-85
2024/03/03 20:11:33;;;;;;;4.55;2.30;;;18.30;63.60;;;;;;6073325;23;20193;-84
2024/03/03 20:14:01;;;;;;;3.05;2.53;;;18.30;64.00;;;;;;6001658;23;20157;-85
2024/03/03 20:16:31;;;;;;;3.30;2.85;;;18.30;64.50;;;;;;6020808;23;20269;-85
2024/03/03 20:19:00;;;;;;;3.97;2.58;;;18.30;63.00;;;;;;5996523;23;20157;-85
2024/03/03 20:21:29;;;;;;;2.97;2.55;;;18.30;64.10;;;;;;5991867;23;20560;-84
2024/03/03 20:24:01;;;;;;;2.70;2.45;;;18.30;63.90;;;;;;6015469;23;20186;-85
2024/03/03 20:26:27;;;;;;;4.68;2.60;;;18.30;64.00;;;;;;5991660;23;20248;-85
2024/03/03 20:28:55;;;;;;;2.83;2.40;;;18.30;64.20;;;;;;6015505;23;20150;-85
2024/03/03 20:31:25;;;;;;;3.95;3.00;;;18.30;63.80;;;;;;5964166;23;20607;-85
2024/03/03 20:33:52;;;;;;;2.80;2.30;;;18.30;64.10;;;;;;5964052;23;20214;-85
2024/03/03 20:36:21;;;;;;;3.33;2.47;;;18.30;64.50;;;;;;5987510;23;20200;-85
2024/03/03 20:38:50;;;;;;;2.80;2.30;;;18.30;64.90;;;;;;5963811;23;20158;-84
2024/03/03 20:41:18;;;;;;;2.65;2.40;;;18.30;65.20;;;;;;5987868;23;20155;-85
2024/03/03 20:43:49;;;;;;;3.35;2.78;;;18.20;64.30;;;;;;5963959;23;20186;-84
2024/03/03 20:46:15;;;;;;;3.95;2.50;;;18.20;63.70;;;;;;5964513;23;20233;-85
2024/03/03 20:48:44;;;;;;;2.75;2.03;;;18.20;64.60;;;;;;6015397;23;20146;-85
2024/03/03 20:51:15;;;;;;;3.95;2.38;;;18.20;65.20;;;;;;6015414;23;20165;-85
2024/03/03 20:53:43;;;;;;;3.20;2.60;;;18.20;65.40;;;;;;5991830;23;20154;-84
2024/03/03 20:56:13;;;;;;;3.67;2.70;;;18.20;64.50;;;;;;6025771;23;20615;-84
2024/03/03 20:58:40;;;;;;;3.53;2.58;;;18.20;64.30;;;;;;6049612;23;20163;-85
2024/03/03 21:01:16;;;;;;;3.05;2.63;;;18.20;64.80;;;;;;6055859;23;20180;-85
2024/03/03 21:03:46;;;;;;;2.55;2.10;;;18.20;64.80;;;;;;6055521;23;20214;-85
2024/03/03 21:06:13;;;;;;;3.25;2.40;;;18.20;65.10;;;;;;6016153;23;20158;-85
2024/03/03 21:08:40;;;;;;;3.30;2.50;;;18.20;64.90;;;;;;5936396;24;20155;-84
2024/03/03 21:11:06;;;;;;;4.20;2.65;;;18.10;65.50;;;;;;5914609;24;20158;-85
2024/03/03 21:13:34;;;;;;;3.67;2.72;;;18.20;65.10;;;;;;5961472;24;20607;-84
2024/03/03 21:16:06;;;;;;;2.45;2.25;;;18.10;65.40;;;;;;5960158;24;20180;-84
2024/03/03 21:18:35;;;;;;;2.60;2.17;;;18.10;65.80;;;;;;5879728;24;20210;-85
2024/03/03 21:21:08;;;;;;;2.42;2.20;;;18.10;65.50;;;;;;5833176;24;20161;-85
2024/03/03 21:23:50;;;;;;;2.72;2.33;;;18.10;65.60;;;;;;5853281;24;20164;-86
2024/03/03 21:26:17;;;;;;;2.58;2.30;;;18.10;66.00;;;;;;5833782;24;20172;-86
2024/03/03 21:28:53;;;;;;;2.50;2.00;;;18.10;65.90;;;;;;5833177;24;20168;-84
2024/03/03 21:31:24;;;;;;;3.67;2.50;;;18.10;66.10;;;;;;5860740;24;20167;-84
2024/03/03 21:33:58;;;;;;;2.63;2.35;;;18.00;66.10;;;;;;5892407;24;20155;-85
2024/03/03 21:36:39;;;;;;;2.50;2.20;;;18.00;66.40;;;;;;5913618;24;20167;-86
2024/03/03 21:39:08;;;;;;;3.60;2.50;;;18.00;65.60;;;;;;5904650;24;20160;-85
2024/03/03 21:41:37;;;;;;;3.15;2.42;;;18.00;66.10;;;;;;5927544;24;20612;-85
2024/03/03 21:44:08;;;;;;;2.67;2.42;;;18.00;66.10;;;;;;5927651;24;20180;-84
2024/03/03 21:46:45;;;;;;;2.40;2.08;;;18.10;66.30;;;;;;5927657;24;20194;-84
2024/03/03 21:49:16;;;;;;;2.70;2.40;;;17.90;66.60;;;;;;5904773;24;20180;-85
2024/03/03 21:51:44;;;;;;;3.80;2.40;;;18.00;66.20;;;;;;5931992;24;20598;-85
2024/03/03 21:54:20;;;;;;;2.75;2.20;;;18.00;66.40;;;;;;5931277;24;20176;-84
2024/03/03 21:56:51;;;;;;;4.18;2.28;;;17.90;66.30;;;;;;6003946;23;20189;-84
2024/03/03 21:59:24;;;;;;;3.15;2.20;;;17.90;66.20;;;;;;5958850;24;20186;-85
2024/03/03 22:01:56;;;;;;;2.78;2.20;;;17.90;66.20;;;;;;5914835;24;20155;-85
2024/03/03 22:04:22;;;;;;;2.63;2.17;;;18.00;66.30;;;;;;5954603;23;20202;-85
2024/03/03 22:06:47;;;;;;;2.83;2.45;;;17.90;66.40;;;;;;5964117;23;20272;-84
2024/03/03 22:09:21;;;;;;;2.35;2.15;;;17.90;66.50;;;;;;5955666;23;20664;-84
2024/03/03 22:11:52;;;;;;;2.70;2.22;;;17.90;66.50;;;;;;6049443;23;20153;-85
2024/03/03 22:14:26;;;;;;;2.72;2.35;;;17.90;66.10;;;;;;6048955;23;20137;-84
2024/03/03 22:16:52;;;;;;;3.00;2.35;;;17.90;66.30;;;;;;6072195;23;20141;-85
2024/03/03 22:19:31;;;;;;;3.03;2.40;;;17.90;66.30;;;;;;6019508;23;20161;-85
2024/03/03 22:22:05;;;;;;;2.25;2.05;;;17.90;66.20;;;;;;6020333;23;20696;-84
2024/03/03 22:24:36;;;;;;;2.85;2.17;;;17.90;66.40;;;;;;6013995;23;20272;-85
2024/03/03 22:27:04;;;;;;;2.88;2.47;;;17.80;66.60;;;;;;5954225;24;20162;-85
2024/03/03 22:29:36;;;;;;;3.58;2.17;;;17.90;66.20;;;;;;5931284;24;20160;-84
2024/03/03 22:32:07;;;;;;;3.25;2.50;;;17.80;66.40;;;;;;5903798;24;20195;-85
2024/03/03 22:34:42;;;;;;;3.38;2.40;;;17.80;66.70;;;;;;5925914;24;20188;-85
2024/03/03 22:37:12;;;;;;;2.60;2.40;;;17.80;66.60;;;;;;5898965;24;20157;-85
2024/03/03 22:39:48;;;;;;;3.15;2.35;;;17.80;66.70;;;;;;5899053;24;20162;-85
2024/03/03 22:42:21;;;;;;;3.17;2.50;;;17.90;66.50;;;;;;5898641;24;20164;-84
2024/03/03 22:44:46;;;;;;;2.38;2.17;;;17.80;66.60;;;;;;5895265;24;20193;-85
2024/03/03 22:47:20;;;;;;;2.85;2.42;;;17.90;66.30;;;;;;5872131;24;20171;-85
2024/03/03 22:49:59;;;;;;;2.85;2.50;;;17.80;66.90;;;;;;5879006;24;20614;-84
2024/03/03 22:52:25;;;;;;;3.40;2.25;;;17.80;66.60;;;;;;5921855;24;20157;-84
2024/03/03 22:54:55;;;;;;;3.42;2.47;;;17.70;66.90;;;;;;5934762;24;20160;-85
2024/03/03 22:57:29;;;;;;;2.90;2.50;;;17.70;66.50;;;;;;5943151;23;20159;-85
2024/03/03 22:59:58;;;;;;;3.00;2.42;;;17.80;66.40;;;;;;5944297;23;20161;-85
2024/03/03 23:02:24;;;;;;;2.90;2.45;;;17.80;66.50;;;;;;5989591;23;20165;-84
2024/03/03 23:04:57;;;;;;;3.08;2.38;;;17.80;66.60;;;;;;6042669;23;20204;-84
2024/03/03 23:07:50;;;;;;;3.05;2.50;;;17.70;66.60;;;;;;5986329;23;20155;-85
2024/03/03 23:10:30;;;;;;;2.95;2.53;;;17.70;66.70;;;;;;5959353;23;20221;-84
2024/03/03 23:12:56;;;;;;;2.63;2.42;;;17.70;66.80;;;;;;5964224;23;20778;-84
2024/03/03 23:15:32;;;;;;;3.00;2.40;;;17.70;66.60;;;;;;5963093;23;20238;-84
2024/03/03 23:18:02;;;;;;;3.10;2.63;;;17.70;66.60;;;;;;5986615;23;20158;-84
2024/03/03 23:20:28;;;;;;;2.85;2.13;;;17.70;66.70;;;;;;5963868;23;20158;-84
2024/03/03 23:22:54;;;;;;;3.03;2.60;;;17.70;67.00;;;;;;5963317;23;20219;-84
2024/03/03 23:25:25;;;;;;;3.03;2.53;;;17.70;66.70;;;;;;5985954;23;20182;-84
2024/03/03 23:28:03;;;;;;;3.17;2.50;;;17.70;66.80;;;;;;5958738;23;20152;-84
2024/03/03 23:30:30;;;;;;;3.88;2.60;;;17.60;66.90;;;;;;5935004;24;20667;-84
2024/03/03 23:33:06;;;;;;;3.35;2.40;;;17.60;67.00;;;;;;5958410;24;20156;-84
2024/03/03 23:35:42;;;;;;;2.97;2.60;;;17.70;67.00;;;;;;5912243;24;20202;-84
2024/03/03 23:38:09;;;;;;;3.38;2.47;;;17.60;66.80;;;;;;5917948;23;20154;-83
2024/03/03 23:40:47;;;;;;;2.80;2.33;;;17.60;67.00;;;;;;6009576;23;20159;-84
2024/03/03 23:43:16;;;;;;;3.00;2.70;;;17.60;66.80;;;;;;5940390;23;20159;-85
2024/03/03 23:45:42;;;;;;;2.85;2.55;;;17.60;66.70;;;;;;5979420;23;20215;-84
2024/03/03 23:48:09;;;;;;;3.53;2.53;;;17.60;67.00;;;;;;5980909;23;20155;-84
2024/03/03 23:50:44;;;;;;;3.72;2.28;;;17.70;66.90;;;;;;5958081;24;20159;-85
2024/03/03 23:53:14;;;;;;;3.90;2.50;;;17.60;66.90;;;;;;5957706;24;20491;-84
2024/03/03 23:55:42;;;;;;;3.17;2.72;;;17.60;66.40;;;;;;5930338;24;20612;-84
2024/03/03 23:58:13;;;;;;;3.00;2.58;;;17.70;66.30;;;;;;5937615;24;20245;-84
